createdAt,value
2022-10-31T00:01:48.208Z,78.43
2022-10-31T00:04:18.346Z,77.99
2022-10-31T00:06:48.384Z,77.77
2022-10-31T00:09:18.117Z,77.89
2022-10-31T00:11:47.977Z,77.92
2022-10-31T00:14:17.409Z,77.92
2022-10-31T00:16:47.181Z,77.27
2022-10-31T00:19:16.978Z,77.55
2022-10-31T00:21:46.701Z,78.92
2022-10-31T00:24:16.847Z,78.69
2022-10-31T00:26:46.565Z,78.18
2022-10-31T00:29:16.263Z,78.18
2022-10-31T00:31:45.750Z,78.84
2022-10-31T00:34:15.448Z,78.11
2022-10-31T00:36:45.216Z,77.77
2022-10-31T00:39:16.023Z,76.98
2022-10-31T00:41:45.785Z,77.12
2022-10-31T00:44:16.600Z,77.82
2022-10-31T00:46:46.364Z,78.54
2022-10-31T00:49:16.514Z,78.71
2022-10-31T00:51:46.272Z,78.70
2022-10-31T00:54:16.335Z,79.22
2022-10-31T00:56:46.359Z,79.11
2022-10-31T00:59:16.479Z,80.24
2022-10-31T01:01:46.398Z,80.02
2022-10-31T01:04:16.599Z,80.72
2022-10-31T01:06:46.362Z,80.06
2022-10-31T01:09:16.448Z,79.66
2022-10-31T01:11:46.250Z,80.42
2022-10-31T01:14:16.359Z,80.05
2022-10-31T01:16:46.094Z,79.53
2022-10-31T01:19:17.117Z,79.88
2022-10-31T01:21:46.862Z,79.17
2022-10-31T01:24:16.921Z,79.09
2022-10-31T01:26:47.182Z,78.81
2022-10-31T01:29:17.293Z,78.94
2022-10-31T01:31:46.794Z,78.61
2022-10-31T01:34:19.040Z,79.38
2022-10-31T01:36:50.790Z,79.47
2022-10-31T01:39:21.175Z,80.22
2022-10-31T01:41:53.651Z,79.17
2022-10-31T01:44:27.386Z,79.16
2022-10-31T01:47:08.576Z,78.91
2022-10-31T01:49:41.686Z,79.92
2022-10-31T01:52:33.708Z,80.06
2022-10-31T01:55:06.838Z,80.24
2022-10-31T01:57:39.622Z,79.93
2022-10-31T02:00:13.164Z,79.81
2022-10-31T02:02:43.815Z,79.88
2022-10-31T02:05:16.673Z,79.58
2022-10-31T02:08:10.633Z,79.93
2022-10-31T02:10:41.663Z,79.30
2022-10-31T02:13:13.866Z,79.07
2022-10-31T02:15:48.547Z,79.70
2022-10-31T02:18:20.723Z,79.30
2022-10-31T02:21:14.811Z,79.89
2022-10-31T02:24:08.450Z,80.03
2022-10-31T02:26:47.382Z,80.06
2022-10-31T02:29:39.397Z,81.32
2022-10-31T02:32:21.062Z,81.24
2022-10-31T02:35:00.164Z,81.85
2022-10-31T02:40:35.817Z,81.95
2022-10-31T02:43:15.722Z,81.53
2022-10-31T02:45:54.125Z,81.93
2022-10-31T02:48:27.485Z,82.10
2022-10-31T02:51:02.849Z,82.66
2022-10-31T02:53:39.534Z,82.43
2022-10-31T02:56:19.077Z,82.43
2022-10-31T02:58:57.791Z,81.60
2022-10-31T03:01:57.668Z,82.01
2022-10-31T03:04:49.739Z,82.03
2022-10-31T03:07:28.361Z,82.51
2022-10-31T03:10:14.994Z,82.68
2022-10-31T03:13:09.004Z,82.53
2022-10-31T03:15:49.714Z,82.54
2022-10-31T03:18:25.221Z,82.64
2022-10-31T03:21:11.317Z,83.50
2022-10-31T03:23:43.539Z,83.74
2022-10-31T03:26:18.166Z,84.48
2022-10-31T03:28:50.990Z,85.27
2022-10-31T03:31:24.371Z,84.69
2022-10-31T03:33:56.400Z,85.83
2022-10-31T03:36:27.747Z,85.83
2022-10-31T03:39:01.152Z,85.82
2022-10-31T03:41:33.950Z,85.55
2022-10-31T03:44:07.071Z,85.16
2022-10-31T03:46:37.108Z,85.47
2022-10-31T03:49:07.471Z,85.23
2022-10-31T03:51:42.689Z,85.62
2022-10-31T03:54:19.567Z,85.62
2022-10-31T03:56:57.619Z,85.53
2022-10-31T03:59:30.472Z,85.67
2022-10-31T04:02:03.397Z,85.49
2022-10-31T04:04:34.369Z,85.33
2022-10-31T04:07:06.951Z,85.58
2022-10-31T04:09:40.312Z,85.47
2022-10-31T04:12:14.629Z,85.66
2022-10-31T04:14:48.541Z,85.38
2022-10-31T04:17:22.206Z,85.42
2022-10-31T04:19:52.889Z,85.43
2022-10-31T04:22:22.821Z,85.42
2022-10-31T04:24:52.574Z,86.13
2022-10-31T04:27:22.600Z,86.01
2022-10-31T04:29:52.107Z,85.85
2022-10-31T04:32:21.853Z,85.65
2022-10-31T04:34:51.588Z,85.89
2022-10-31T04:37:21.344Z,86.17
2022-10-31T04:39:51.091Z,85.55
2022-10-31T04:42:40.299Z,85.59
2022-10-31T04:45:10.052Z,85.77
2022-10-31T04:47:39.969Z,86.07
2022-10-31T04:50:09.893Z,85.54
2022-10-31T04:52:43.920Z,85.83
2022-10-31T04:55:15.602Z,86.03
2022-10-31T04:58:03.441Z,85.50
2022-10-31T05:00:34.969Z,85.60
2022-10-31T05:03:04.779Z,85.66
2022-10-31T05:05:35.379Z,85.88
2022-10-31T05:08:05.866Z,86.11
2022-10-31T05:10:35.698Z,86.12
2022-10-31T05:13:06.702Z,86.09
2022-10-31T05:15:54.151Z,86.24
2022-10-31T05:18:34.417Z,86.27
2022-10-31T05:21:21.665Z,86.14
2022-10-31T05:23:55.803Z,86.12
2022-10-31T05:26:26.529Z,85.87
2022-10-31T05:28:56.676Z,85.63
2022-10-31T05:31:26.482Z,86.19
2022-10-31T05:33:56.319Z,85.79
2022-10-31T05:36:45.223Z,85.97
2022-10-31T05:39:16.985Z,85.70
2022-10-31T05:41:48.439Z,86.09
2022-10-31T05:44:19.919Z,86.03
2022-10-31T05:47:03.127Z,85.63
2022-10-31T05:49:50.835Z,85.64
2022-10-31T05:52:38.299Z,85.64
2022-10-31T05:55:09.906Z,85.19
2022-10-31T05:57:40.230Z,85.48
2022-10-31T06:00:12.034Z,85.63
2022-10-31T06:02:43.504Z,85.67
2022-10-31T06:05:26.839Z,85.67
2022-10-31T06:07:58.184Z,86.17
2022-10-31T06:10:28.879Z,86.18
2022-10-31T06:12:59.404Z,86.35
2022-10-31T06:15:43.913Z,86.07
2022-10-31T06:18:14.493Z,86.06
2022-10-31T06:20:48.802Z,86.06
2022-10-31T06:23:18.641Z,86.17
2022-10-31T06:25:53.064Z,86.55
2022-10-31T06:28:22.941Z,86.53
2022-10-31T06:30:54.443Z,86.38
2022-10-31T06:33:24.278Z,86.27
2022-10-31T06:35:55.829Z,85.96
2022-10-31T06:38:27.617Z,86.16
2022-10-31T06:40:57.696Z,85.76
2022-10-31T06:43:30.701Z,85.65
2022-10-31T06:46:08.224Z,86.21
2022-10-31T06:48:39.656Z,86.13
2022-10-31T06:51:23.247Z,86.15
2022-10-31T06:53:53.291Z,86.05
2022-10-31T06:56:24.568Z,85.89
2022-10-31T06:58:55.352Z,86.07
2022-10-31T07:01:27.065Z,85.55
2022-10-31T07:03:56.948Z,85.26
2022-10-31T07:06:26.715Z,84.74
2022-10-31T07:08:56.638Z,84.31
2022-10-31T07:11:27.919Z,83.71
2022-10-31T07:13:58.829Z,83.53
2022-10-31T07:16:28.626Z,82.71
2022-10-31T07:18:58.435Z,82.71
2022-10-31T07:21:28.289Z,82.27
2022-10-31T07:23:58.380Z,82.20
2022-10-31T07:26:48.486Z,81.58
2022-10-31T07:29:18.403Z,81.79
2022-10-31T07:31:49.160Z,82.19
2022-10-31T07:34:20.603Z,82.19
2022-10-31T07:37:06.709Z,82.48
2022-10-31T07:39:36.347Z,82.64
2022-10-31T07:42:06.683Z,83.25
2022-10-31T07:44:36.589Z,83.35
2022-10-31T07:47:08.333Z,83.01
2022-10-31T07:49:55.833Z,83.36
2022-10-31T07:52:43.658Z,84.12
2022-10-31T07:55:15.941Z,83.86
2022-10-31T07:57:47.484Z,84.26
2022-10-31T08:00:18.742Z,84.14
2022-10-31T08:02:50.198Z,84.50
2022-10-31T08:05:37.906Z,84.26
2022-10-31T08:08:21.692Z,84.34
2022-10-31T08:10:51.575Z,84.34
2022-10-31T08:13:21.395Z,85.45
2022-10-31T08:15:54.602Z,85.09
2022-10-31T08:18:26.319Z,85.90
2022-10-31T08:20:56.353Z,85.55
2022-10-31T08:23:26.161Z,85.50
2022-10-31T08:25:56.617Z,85.23
2022-10-31T08:28:26.360Z,85.09
2022-10-31T08:30:56.467Z,84.96
2022-10-31T08:33:46.393Z,85.28
2022-10-31T08:36:23.501Z,84.60
2022-10-31T08:39:01.851Z,84.48
2022-10-31T08:41:30.403Z,84.46
2022-10-31T08:44:00.947Z,83.67
2022-10-31T08:46:30.754Z,83.14
2022-10-31T08:49:00.967Z,82.84
2022-10-31T08:51:30.956Z,81.60
2022-10-31T08:54:00.710Z,81.85
2022-10-31T08:56:37.693Z,80.44
2022-10-31T08:59:09.156Z,80.67
2022-10-31T09:01:40.793Z,80.65
2022-10-31T09:04:11.668Z,78.49
2022-10-31T09:06:50.451Z,78.32
2022-10-31T09:09:13.125Z,77.83
2022-10-31T09:11:43.342Z,77.99
2022-10-31T09:14:14.541Z,77.36
2022-10-31T09:16:55.213Z,77.22
2022-10-31T09:19:26.631Z,76.97
2022-10-31T09:21:56.770Z,76.97
2022-10-31T09:24:26.590Z,77.70
2022-10-31T09:26:56.338Z,77.70
2022-10-31T09:29:31.949Z,77.59
2022-10-31T09:32:02.741Z,77.07
2022-10-31T09:34:34.362Z,77.07
2022-10-31T09:37:11.549Z,76.59
2022-10-31T09:39:42.258Z,75.87
2022-10-31T09:42:25.794Z,76.28
2022-10-31T09:45:16.296Z,75.91
2022-10-31T09:48:00.909Z,76.02
2022-10-31T09:50:43.040Z,76.48
2022-10-31T09:53:29.041Z,76.61
2022-10-31T09:55:59.519Z,77.54
2022-10-31T09:58:34.084Z,77.74
2022-10-31T10:01:05.541Z,76.44
2022-10-31T10:03:46.900Z,75.97
2022-10-31T10:06:29.691Z,77.07
2022-10-31T10:09:17.421Z,76.27
2022-10-31T10:12:24.069Z,76.27
2022-10-31T10:15:18.109Z,75.14
2022-10-31T10:18:01.327Z,75.14
2022-10-31T10:20:59.087Z,75.14
2022-10-31T10:23:48.914Z,74.86
2022-10-31T10:26:21.784Z,74.71
2022-10-31T10:29:06.225Z,74.68
2022-10-31T10:31:39.039Z,74.82
2022-10-31T10:34:11.862Z,74.72
2022-10-31T10:36:47.790Z,74.88
2022-10-31T10:39:38.576Z,75.42
2022-10-31T10:42:34.067Z,76.16
2022-10-31T10:45:30.168Z,75.26
2022-10-31T10:48:17.377Z,74.22
2022-10-31T10:50:54.286Z,73.51
2022-10-31T10:53:38.410Z,72.82
2022-10-31T10:56:19.961Z,72.82
2022-10-31T10:58:50.445Z,73.10
2022-10-31T11:01:20.255Z,71.87
2022-10-31T11:03:50.987Z,72.08
2022-10-31T11:06:27.584Z,73.34
2022-10-31T11:08:57.102Z,72.07
2022-10-31T11:11:32.727Z,71.74
2022-10-31T11:14:08.595Z,71.78
2022-10-31T11:16:41.822Z,71.39
2022-10-31T11:19:17.445Z,69.96
2022-10-31T11:21:53.706Z,71.08
2022-10-31T11:24:21.541Z,69.95
2022-10-31T11:26:52.781Z,69.17
2022-10-31T11:29:27.376Z,68.98
2022-10-31T11:32:02.118Z,69.93
2022-10-31T11:34:37.024Z,69.47
2022-10-31T11:37:12.546Z,69.05
2022-10-31T11:39:45.446Z,68.90
2022-10-31T11:42:15.749Z,68.14
2022-10-31T11:44:46.316Z,67.98
2022-10-31T11:47:21.743Z,68.20
2022-10-31T11:49:51.712Z,68.06
2022-10-31T11:52:27.371Z,67.86
2022-10-31T11:55:32.957Z,67.62
2022-10-31T11:58:03.279Z,68.19
2022-10-31T12:00:35.886Z,68.39
2022-10-31T12:03:41.495Z,67.55
2022-10-31T12:06:26.225Z,67.96
2022-10-31T12:08:56.037Z,67.54
2022-10-31T12:11:28.841Z,67.17
2022-10-31T12:14:07.270Z,67.58
2022-10-31T12:16:45.757Z,67.99
2022-10-31T12:19:37.398Z,68.47
2022-10-31T12:22:14.170Z,67.46
2022-10-31T12:25:06.221Z,66.96
2022-10-31T12:27:50.622Z,65.69
2022-10-31T12:30:32.054Z,65.01
2022-10-31T12:33:21.363Z,65.01
2022-10-31T12:35:59.712Z,64.51
2022-10-31T12:38:41.424Z,64.88
2022-10-31T12:41:17.222Z,64.88
2022-10-31T12:43:52.542Z,64.41
2022-10-31T12:46:59.542Z,64.39
2022-10-31T12:49:40.325Z,64.78
2022-10-31T12:52:47.293Z,64.85
2022-10-31T12:55:42.259Z,65.51
2022-10-31T12:58:27.211Z,65.20
2022-10-31T13:01:00.157Z,64.28
2022-10-31T13:03:38.874Z,63.52
2022-10-31T13:06:12.719Z,62.86
2022-10-31T13:08:45.507Z,63.47
2022-10-31T13:11:19.260Z,62.21
2022-10-31T13:13:58.006Z,62.21
2022-10-31T13:16:33.519Z,61.73
2022-10-31T13:19:14.683Z,61.74
2022-10-31T13:21:56.358Z,62.01
2022-10-31T13:24:45.642Z,62.11
2022-10-31T13:27:24.259Z,62.11
2022-10-31T13:30:15.060Z,60.99
2022-10-31T13:32:47.923Z,61.44
2022-10-31T13:35:45.909Z,62.05
2022-10-31T13:38:18.694Z,61.98
2022-10-31T13:41:00.477Z,61.18
2022-10-31T13:43:41.950Z,61.18
2022-10-31T13:46:36.471Z,61.62
2022-10-31T13:49:09.122Z,61.11
2022-10-31T13:51:39.275Z,60.87
2022-10-31T13:54:25.251Z,61.09
2022-10-31T13:56:55.690Z,60.86
2022-10-31T13:59:27.709Z,60.86
2022-10-31T14:02:01.176Z,60.78
2022-10-31T14:04:34.361Z,61.32
2022-10-31T14:07:22.104Z,61.50
2022-10-31T14:10:03.412Z,61.74
2022-10-31T14:12:41.413Z,61.87
2022-10-31T14:15:25.372Z,62.12
2022-10-31T14:18:02.786Z,62.16
2022-10-31T14:20:44.706Z,62.57
2022-10-31T14:23:17.054Z,62.60
2022-10-31T14:25:47.207Z,62.98
2022-10-31T14:28:25.617Z,62.48
2022-10-31T14:30:58.075Z,62.81
2022-10-31T14:33:30.353Z,64.29
2022-10-31T14:36:19.699Z,64.29
2022-10-31T14:39:00.747Z,62.76
2022-10-31T14:41:59.093Z,63.36
2022-10-31T14:44:49.684Z,63.39
2022-10-31T14:47:56.994Z,63.83
2022-10-31T14:50:44.685Z,63.83
2022-10-31T14:53:23.154Z,64.54
2022-10-31T14:55:56.484Z,64.73
2022-10-31T14:58:40.759Z,65.36
2022-10-31T15:01:12.328Z,64.74
2022-10-31T15:04:10.196Z,64.59
2022-10-31T15:06:21.489Z,64.72
2022-10-31T15:08:53.376Z,64.58
2022-10-31T15:11:26.345Z,65.34
2022-10-31T15:13:58.954Z,65.01
2022-10-31T15:19:07.817Z,65.76
2022-10-31T15:21:39.777Z,65.56
2022-10-31T15:24:15.411Z,65.23
2022-10-31T15:26:48.529Z,65.80
2022-10-31T15:29:22.561Z,66.33
2022-10-31T15:31:57.090Z,66.07
2022-10-31T15:34:44.185Z,66.45
2022-10-31T15:37:19.841Z,66.69
2022-10-31T15:39:51.151Z,67.04
2022-10-31T15:42:26.201Z,66.91
2022-10-31T15:45:04.823Z,67.73
2022-10-31T15:47:35.455Z,68.48
2022-10-31T15:50:10.885Z,68.37
2022-10-31T15:52:48.288Z,68.29
2022-10-31T15:55:23.410Z,68.91
2022-10-31T15:57:56.309Z,68.84
2022-10-31T16:00:28.787Z,69.02
2022-10-31T16:03:07.195Z,69.50
2022-10-31T16:05:40.076Z,69.50
2022-10-31T16:08:33.400Z,69.74
2022-10-31T16:11:14.999Z,69.94
2022-10-31T16:13:56.511Z,70.49
2022-10-31T16:16:35.168Z,70.69
2022-10-31T16:19:00.646Z,70.18
2022-10-31T16:21:36.227Z,70.08
2022-10-31T16:24:22.015Z,70.76
2022-10-31T16:27:09.312Z,71.31
2022-10-31T16:29:44.578Z,71.55
2022-10-31T16:32:39.714Z,72.48
2022-10-31T16:35:15.769Z,72.15
2022-10-31T16:37:46.656Z,71.76
2022-10-31T16:40:17.275Z,71.78
2022-10-31T16:42:49.680Z,72.07
2022-10-31T16:45:27.337Z,72.96
2022-10-31T16:48:06.018Z,72.80
2022-10-31T16:50:35.789Z,73.08
2022-10-31T16:53:13.800Z,73.09
2022-10-31T16:55:38.773Z,73.45
2022-10-31T16:58:12.905Z,73.55
2022-10-31T17:00:42.857Z,73.73
2022-10-31T17:03:13.134Z,73.93
2022-10-31T17:05:42.879Z,73.42
2022-10-31T17:08:12.683Z,74.00
2022-10-31T17:10:44.505Z,74.00
2022-10-31T17:13:17.707Z,74.37
2022-10-31T17:15:51.054Z,74.72
2022-10-31T17:18:26.896Z,73.93
2022-10-31T17:20:55.731Z,73.96
2022-10-31T17:23:25.666Z,74.35
2022-10-31T17:25:55.855Z,74.46
2022-10-31T17:28:26.698Z,74.46
2022-10-31T17:30:59.009Z,74.56
2022-10-31T17:33:28.676Z,73.97
2022-10-31T17:35:58.449Z,72.83
2022-10-31T17:38:28.199Z,72.83
2022-10-31T17:40:57.962Z,73.15
2022-10-31T17:43:27.802Z,72.39
2022-10-31T17:46:00.664Z,72.34
2022-10-31T17:48:30.857Z,72.34
2022-10-31T17:51:07.487Z,71.66
2022-10-31T17:53:36.954Z,71.52
2022-10-31T17:56:09.529Z,70.77
2022-10-31T17:58:39.774Z,71.38
2022-10-31T18:01:12.111Z,70.97
2022-10-31T18:03:42.260Z,70.97
2022-10-31T18:06:14.601Z,70.62
2022-10-31T18:08:44.849Z,70.95
2022-10-31T18:11:20.281Z,70.92
2022-10-31T18:13:51.533Z,70.82
2022-10-31T18:16:21.482Z,71.48
2022-10-31T18:18:53.822Z,71.04
2022-10-31T18:21:23.653Z,70.61
2022-10-31T18:23:57.253Z,71.03
2022-10-31T18:26:28.231Z,70.92
2022-10-31T18:28:58.318Z,71.31
2022-10-31T18:31:28.511Z,70.96
2022-10-31T18:33:58.704Z,71.11
2022-10-31T18:36:28.201Z,71.11
2022-10-31T18:38:58.043Z,71.93
2022-10-31T18:41:27.778Z,71.75
2022-10-31T18:44:00.125Z,71.87
2022-10-31T18:46:29.911Z,71.85
2022-10-31T18:49:00.487Z,71.56
2022-10-31T18:51:30.604Z,71.68
2022-10-31T18:54:02.077Z,71.61
2022-10-31T18:56:32.179Z,71.53
2022-10-31T18:59:03.168Z,71.67
2022-10-31T19:01:33.259Z,71.47
2022-10-31T19:04:03.169Z,70.89
2022-10-31T19:06:33.070Z,70.60
2022-10-31T19:09:05.682Z,70.60
2022-10-31T19:11:36.444Z,70.83
2022-10-31T19:14:12.553Z,70.30
2022-10-31T19:16:42.570Z,70.32
2022-10-31T19:19:12.351Z,70.81
2022-10-31T19:21:42.151Z,70.93
2022-10-31T19:24:11.834Z,70.37
2022-10-31T19:26:41.572Z,70.24
2022-10-31T19:29:11.647Z,71.15
2022-10-31T19:31:41.485Z,71.25
2022-10-31T19:34:12.400Z,71.19
2022-10-31T19:36:42.845Z,71.13
2022-10-31T19:39:13.383Z,71.94
2022-10-31T19:41:43.136Z,72.00
2022-10-31T19:44:15.093Z,71.70
2022-10-31T19:46:53.250Z,71.42
2022-10-31T19:49:16.698Z,71.71
2022-10-31T19:51:46.437Z,71.63
2022-10-31T19:54:16.024Z,71.37
2022-10-31T19:56:45.595Z,71.27
2022-10-31T19:59:15.401Z,71.76
2022-10-31T20:01:45.290Z,71.12
2022-10-31T20:04:14.993Z,71.48
2022-10-31T20:06:44.790Z,71.49
2022-10-31T20:09:15.294Z,71.51
2022-10-31T20:11:46.058Z,71.43
2022-10-31T20:14:17.654Z,71.13
2022-10-31T20:16:47.814Z,71.60
2022-10-31T20:19:17.315Z,71.58
2022-10-31T20:21:47.510Z,71.86
2022-10-31T20:24:17.257Z,71.25
2022-10-31T20:26:47.473Z,71.32
2022-10-31T20:29:17.248Z,71.70
2022-10-31T20:31:48.130Z,71.70
2022-10-31T20:34:17.850Z,71.37
2022-10-31T20:36:48.251Z,71.75
2022-10-31T20:39:18.055Z,71.42
2022-10-31T20:41:48.627Z,71.43
2022-10-31T20:44:18.356Z,71.50
2022-10-31T20:46:48.122Z,72.07
2022-10-31T20:49:17.878Z,71.83
2022-10-31T20:51:47.927Z,71.70
2022-10-31T20:54:18.955Z,71.59
2022-10-31T20:56:49.199Z,71.58
2022-10-31T20:59:19.795Z,71.56
2022-10-31T21:01:49.759Z,71.32
2022-10-31T21:04:19.686Z,71.96
2022-10-31T21:06:49.903Z,71.46
2022-10-31T21:09:19.711Z,71.43
2022-10-31T21:11:49.485Z,71.16
2022-10-31T21:14:19.126Z,71.76
2022-10-31T21:16:48.868Z,71.42
2022-10-31T21:19:18.617Z,71.41
2022-10-31T21:21:48.349Z,71.45
2022-10-31T21:24:20.746Z,71.94
2022-10-31T21:26:53.083Z,71.75
2022-10-31T21:29:23.047Z,70.86
2022-10-31T21:31:52.741Z,70.86
2022-10-31T21:34:22.272Z,71.21
2022-10-31T21:36:52.044Z,71.10
2022-10-31T21:39:21.868Z,71.53
2022-10-31T21:41:51.696Z,71.14
2022-10-31T21:44:21.472Z,71.06
2022-10-31T21:46:51.224Z,71.40
2022-10-31T21:49:21.052Z,71.24
2022-10-31T21:51:50.775Z,71.20
2022-10-31T21:54:29.991Z,71.16
2022-10-31T21:57:00.734Z,70.80
2022-10-31T21:59:31.210Z,71.21
2022-10-31T22:02:01.425Z,71.21
2022-10-31T22:04:31.669Z,70.51
2022-10-31T22:07:01.418Z,70.29
2022-10-31T22:09:31.165Z,70.68
2022-10-31T22:12:03.007Z,70.25
2022-10-31T22:14:33.042Z,70.18
2022-10-31T22:17:02.813Z,70.31
2022-10-31T22:19:32.278Z,70.41
2022-10-31T22:22:02.406Z,70.47
2022-10-31T22:24:32.150Z,70.67
2022-10-31T22:27:01.988Z,70.45
2022-10-31T22:29:31.736Z,70.89
2022-10-31T22:32:02.902Z,70.65
2022-10-31T22:34:32.613Z,70.39
2022-10-31T22:37:02.368Z,70.75
2022-10-31T22:39:32.129Z,70.73
2022-10-31T22:42:01.954Z,70.74
2022-10-31T22:44:31.695Z,70.01
2022-10-31T22:47:01.756Z,70.10
2022-10-31T22:49:31.579Z,69.58
2022-10-31T22:52:03.031Z,69.52
2022-10-31T22:54:33.076Z,69.40
2022-10-31T22:57:02.827Z,69.76
2022-10-31T22:59:32.566Z,69.61
2022-10-31T23:02:03.113Z,69.12
2022-10-31T23:04:34.014Z,69.34
2022-10-31T23:07:04.333Z,69.58
2022-10-31T23:09:34.374Z,70.32
2022-10-31T23:12:24.209Z,70.43
2022-10-31T23:14:53.935Z,70.65
2022-10-31T23:17:23.679Z,70.14
2022-10-31T23:19:53.722Z,71.29
2022-10-31T23:22:23.179Z,70.70
2022-10-31T23:24:52.980Z,70.91
2022-10-31T23:27:24.962Z,70.91
2022-10-31T23:29:57.179Z,70.38
2022-10-31T23:32:32.030Z,70.81
2022-10-31T23:35:05.050Z,70.60
2022-10-31T23:37:37.009Z,70.08
2022-10-31T23:40:08.950Z,70.23
2022-10-31T23:42:38.746Z,69.63
2022-10-31T23:45:09.057Z,69.41
2022-10-31T23:47:43.196Z,70.36
2022-10-31T23:50:11.324Z,69.88
2022-10-31T23:52:41.090Z,69.87
2022-10-31T23:55:11.702Z,70.41
2022-10-31T23:57:41.441Z,70.51
